Time;durP1;ratioP1;P1;durP2;ratioP2;P2;SDS_P1;SDS_P2;PMS_P1;PMS_P2;Temp;Humidity;BMP_temperature;BMP_pressure;BME280_temperature;BME280_humidity;BME280_pressure;Samples;Min_cycle;Max_cycle;Signal;HPM_P1;HPM_P2
2023/05/19 00:02:19;;;;;;;;;;;8.20;99.90;;;;;;5063441;28;19964;-72
2023/05/19 00:04:46;;;;;;;;;;;8.20;99.90;;;;;;5063114;28;20264;-72
2023/05/19 00:07:14;;;;;;;;;;;8.10;99.90;;;;;;5061525;28;19974;-72
2023/05/19 00:09:40;;;;;;;;;;;8.10;99.90;;;;;;5066818;28;19924;-72
2023/05/19 00:12:06;;;;;;;;;;;8.10;99.90;;;;;;5069804;28;19924;-72
2023/05/19 00:14:31;;;;;;;;;;;8.10;99.90;;;;;;5064754;28;19929;-72
2023/05/19 00:16:57;;;;;;;;;;;8.20;99.90;;;;;;5073021;28;20019;-72
2023/05/19 00:19:24;;;;;;;;;;;8.20;99.90;;;;;;5077544;28;19924;-71
2023/05/19 00:21:49;;;;;;;;;;;8.20;99.90;;;;;;5071556;28;19928;-72
2023/05/19 00:24:15;;;;;;;;;;;8.20;99.90;;;;;;5064848;28;19932;-72
2023/05/19 00:26:40;;;;;;;;;;;8.20;99.90;;;;;;5066339;28;19924;-72
2023/05/19 00:29:06;;;;;;;;;;;8.20;99.90;;;;;;5054642;28;19975;-72
2023/05/19 00:31:32;;;;;;;;;;;8.20;99.90;;;;;;5048820;28;20374;-72
2023/05/19 00:33:58;;;;;;;;;;;8.20;99.90;;;;;;5059855;28;19925;-72
2023/05/19 00:36:23;;;;;;;;;;;8.20;99.90;;;;;;5052605;28;19925;-72
2023/05/19 00:38:50;;;;;;;;;;;8.30;99.90;;;;;;5060557;28;20306;-73
2023/05/19 00:41:15;;;;;;;;;;;8.30;99.90;;;;;;5066164;28;20007;-72
2023/05/19 00:43:41;;;;;;;;;;;8.30;99.90;;;;;;5051469;28;20069;-72
2023/05/19 00:46:06;;;;;;;;;;;9.00;99.90;;;;;;5060646;28;19925;-72
2023/05/19 00:48:32;;;;;;;;;;;8.30;99.90;;;;;;5057966;28;19925;-72
2023/05/19 00:51:02;;;;;;;;;;;8.30;99.90;;;;;;5070940;28;20441;-72
2023/05/19 00:53:29;;;;;;;;;;;8.30;99.90;;;;;;5060263;28;19928;-72
2023/05/19 00:55:54;;;;;;;;;;;8.40;99.90;;;;;;5059727;28;20362;-72
2023/05/19 00:58:22;;;;;;;;;;;8.30;99.90;;;;;;5061496;28;19931;-72
2023/05/19 01:00:49;;;;;;;;;;;8.30;99.90;;;;;;5065836;28;20350;-72
2023/05/19 01:03:19;;;;;;;;;;;8.30;99.90;;;;;;5064182;28;19925;-73
2023/05/19 01:05:52;;;;;;;;;;;8.30;99.90;;;;;;5043255;28;20434;-73
2023/05/19 01:08:18;;;;;;;;;;;8.30;99.90;;;;;;5056505;28;19924;-73
2023/05/19 01:10:44;;;;;;;;;;;8.30;99.90;;;;;;5059765;28;20020;-73
2023/05/19 01:13:09;;;;;;;;;;;8.30;99.90;;;;;;5066293;28;19924;-73
2023/05/19 01:15:42;;;;;;;;;;;8.30;99.90;;;;;;5062256;28;19932;-73
2023/05/19 01:18:12;;;;;;;;;;;8.20;99.90;;;;;;5067358;28;19924;-72
2023/05/19 01:20:41;;;;;;;;;;;8.20;99.90;;;;;;5065734;28;19924;-72
2023/05/19 01:23:35;;;;;;;;;;;8.30;99.90;;;;;;5073118;28;19924;-72
2023/05/19 01:26:19;;;;;;;;;;;8.20;99.90;;;;;;5053965;28;20410;-72
2023/05/19 01:28:48;;;;;;;;;;;8.20;99.90;;;;;;5068917;28;19931;-72
2023/05/19 01:31:14;;;;;;;;;;;8.20;99.90;;;;;;5054199;28;19994;-72
2023/05/19 01:33:42;;;;;;;;;;;8.20;99.90;;;;;;5057608;28;19951;-72
2023/05/19 01:36:10;;;;;;;;;;;8.20;99.90;;;;;;5065687;28;19924;-72
2023/05/19 01:38:36;;;;;;;;;;;8.40;99.90;;;;;;5066306;28;19936;-72
2023/05/19 01:41:02;;;;;;;;;;;8.20;99.90;;;;;;5068407;28;19929;-73
2023/05/19 01:43:28;;;;;;;;;;;8.10;99.90;;;;;;5042394;28;20019;-73
2023/05/19 01:45:54;;;;;;;;;;;8.10;99.90;;;;;;5060770;28;20425;-72
2023/05/19 01:48:20;;;;;;;;;;;8.10;99.90;;;;;;5064074;28;19980;-73
2023/05/19 01:50:46;;;;;;;;;;;8.10;99.90;;;;;;5072705;28;19993;-73
2023/05/19 01:53:12;;;;;;;;;;;8.10;99.90;;;;;;5069033;28;19928;-73
2023/05/19 01:55:42;;;;;;;;;;;8.00;99.90;;;;;;5053550;28;19924;-73
2023/05/19 01:58:26;;;;;;;;;;;8.10;99.90;;;;;;5063009;28;19920;-73
2023/05/19 02:00:56;;;;;;;;;;;8.00;99.90;;;;;;5051975;28;19985;-73
2023/05/19 02:03:41;;;;;;;;;;;8.10;99.90;;;;;;5066691;28;19929;-72
2023/05/19 02:06:30;;;;;;;;;;;8.00;99.90;;;;;;5060079;28;20015;-72
2023/05/19 02:09:12;;;;;;;;;;;8.00;99.90;;;;;;5068017;28;19932;-72
2023/05/19 02:11:37;;;;;;;;;;;8.00;99.90;;;;;;5072608;28;19946;-71
2023/05/19 02:14:15;;;;;;;;;;;8.10;99.90;;;;;;5068882;28;19925;-72
2023/05/19 02:16:43;;;;;;;;;;;8.00;99.90;;;;;;5052769;28;20024;-71
2023/05/19 02:19:18;;;;;;;;;;;8.00;99.90;;;;;;5039662;28;19978;-72
2023/05/19 02:21:44;;;;;;;;;;;8.00;99.90;;;;;;5062290;28;19968;-71
2023/05/19 02:24:10;;;;;;;;;;;8.00;99.90;;;;;;5061564;28;20386;-72
2023/05/19 02:26:35;;;;;;;;;;;7.90;99.90;;;;;;5061973;28;19975;-73
2023/05/19 02:29:01;;;;;;;;;;;8.00;99.90;;;;;;5071394;28;20015;-72
2023/05/19 02:31:26;;;;;;;;;;;7.90;99.90;;;;;;5054076;28;19933;-72
2023/05/19 02:33:52;;;;;;;;;;;7.90;99.90;;;;;;5058861;28;19925;-72
2023/05/19 02:36:18;;;;;;;;;;;7.90;99.90;;;;;;5066754;28;19924;-72
2023/05/19 02:38:43;;;;;;;;;;;7.90;99.90;;;;;;5068794;28;20279;-72
2023/05/19 02:41:09;;;;;;;;;;;7.90;99.90;;;;;;5065492;28;19983;-72
2023/05/19 02:43:35;;;;;;;;;;;7.90;99.90;;;;;;5059283;28;19925;-72
2023/05/19 02:46:00;;;;;;;;;;;7.90;99.90;;;;;;5056441;28;19925;-72
2023/05/19 02:48:26;;;;;;;;;;;7.80;99.90;;;;;;5058179;28;19931;-72
2023/05/19 02:50:51;;;;;;;;;;;7.80;99.90;;;;;;5066587;28;19925;-72
2023/05/19 02:53:17;;;;;;;;;;;7.90;99.90;;;;;;5068182;28;20420;-72
2023/05/19 02:55:42;;;;;;;;;;;8.00;99.90;;;;;;5067887;28;20007;-72
2023/05/19 02:58:08;;;;;;;;;;;7.80;99.90;;;;;;5065367;28;19925;-72
2023/05/19 03:00:34;;;;;;;;;;;7.70;99.90;;;;;;5048425;28;19931;-72
2023/05/19 03:03:01;;;;;;;;;;;7.70;99.90;;;;;;5066973;28;20008;-72
2023/05/19 03:05:28;;;;;;;;;;;7.70;99.90;;;;;;5061215;28;20055;-72
2023/05/19 03:07:54;;;;;;;;;;;7.60;99.90;;;;;;5051077;28;19924;-73
2023/05/19 03:10:20;;;;;;;;;;;7.60;99.90;;;;;;5065855;28;19946;-72
2023/05/19 03:12:46;;;;;;;;;;;7.60;99.90;;;;;;5058216;28;19932;-72
2023/05/19 03:15:13;;;;;;;;;;;7.50;99.90;;;;;;5063138;28;19929;-73
2023/05/19 03:17:39;;;;;;;;;;;7.50;99.90;;;;;;5060680;28;19924;-72
2023/05/19 03:20:05;;;;;;;;;;;7.50;99.90;;;;;;5059415;28;19924;-73
2023/05/19 03:22:31;;;;;;;;;;;7.50;99.90;;;;;;5064969;28;19960;-72
2023/05/19 03:24:57;;;;;;;;;;;7.50;99.90;;;;;;5064524;28;19979;-72
2023/05/19 03:27:23;;;;;;;;;;;7.40;99.90;;;;;;5054668;28;19947;-73
2023/05/19 03:29:48;;;;;;;;;;;7.40;99.90;;;;;;5073999;28;19924;-73
2023/05/19 03:32:17;;;;;;;;;;;7.40;99.90;;;;;;5066916;28;19925;-74
2023/05/19 03:34:43;;;;;;;;;;;7.50;99.90;;;;;;5070437;28;19969;-73
2023/05/19 03:37:09;;;;;;;;;;;7.50;99.90;;;;;;5060477;28;19924;-73
2023/05/19 03:39:35;;;;;;;;;;;7.50;99.90;;;;;;5046648;28;19978;-73
2023/05/19 03:42:00;;;;;;;;;;;7.50;99.90;;;;;;5062587;28;20019;-72
2023/05/19 03:44:26;;;;;;;;;;;7.50;99.90;;;;;;5072634;28;19931;-73
2023/05/19 03:46:52;;;;;;;;;;;7.50;99.90;;;;;;5051647;28;19928;-72
2023/05/19 03:49:17;;;;;;;;;;;7.50;99.90;;;;;;5066062;28;19968;-73
2023/05/19 03:51:43;;;;;;;;;;;7.50;99.90;;;;;;5060112;28;19925;-73
2023/05/19 03:54:08;;;;;;;;;;;7.50;99.90;;;;;;5069953;28;19924;-72
2023/05/19 03:56:37;;;;;;;;;;;7.50;99.90;;;;;;5051606;28;19931;-72
2023/05/19 03:59:04;;;;;;;;;;;7.40;99.90;;;;;;5058089;28;19930;-72
2023/05/19 04:01:30;;;;;;;;;;;7.50;99.90;;;;;;5051572;28;19924;-72
2023/05/19 04:03:55;;;;;;;;;;;7.50;99.90;;;;;;5053313;28;20028;-72
2023/05/19 04:06:22;;;;;;;;;;;7.60;99.90;;;;;;5037630;28;20032;-73
2023/05/19 04:08:47;;;;;;;;;;;7.50;99.90;;;;;;5052614;28;19925;-72
2023/05/19 04:11:18;;;;;;;;;;;7.50;99.90;;;;;;5049517;28;19925;-71
2023/05/19 04:13:44;;;;;;;;;;;7.50;99.90;;;;;;5051818;28;20004;-72
2023/05/19 04:16:10;;;;;;;;;;;7.50;99.90;;;;;;5051528;28;19924;-72
2023/05/19 04:18:35;;;;;;;;;;;7.60;99.90;;;;;;5045345;28;19998;-72
2023/05/19 04:21:01;;;;;;;;;;;7.60;99.90;;;;;;5041156;28;19941;-72
2023/05/19 04:23:27;;;;;;;;;;;7.60;99.90;;;;;;5047013;28;19925;-72
2023/05/19 04:25:53;;;;;;;;;;;7.60;99.90;;;;;;5036736;28;19925;-72
2023/05/19 04:28:18;;;;;;;;;;;7.60;99.90;;;;;;5039915;28;19963;-73
2023/05/19 04:30:45;;;;;;;;;;;7.70;99.90;;;;;;5041350;28;19933;-73
2023/05/19 04:33:11;;;;;;;;;;;7.70;99.90;;;;;;5043327;28;19932;-73
2023/05/19 04:35:38;;;;;;;;;;;7.90;99.90;;;;;;5041318;28;19925;-73
2023/05/19 04:38:04;;;;;;;;;;;7.80;99.90;;;;;;5050485;28;19948;-73
2023/05/19 04:40:29;;;;;;;;;;;7.90;99.90;;;;;;5047188;28;20374;-73
2023/05/19 04:42:56;;;;;;;;;;;7.90;99.90;;;;;;5043572;28;19931;-73
2023/05/19 04:45:22;;;;;;;;;;;8.00;99.90;;;;;;5038799;28;19928;-73
2023/05/19 04:47:47;;;;;;;;;;;8.10;99.90;;;;;;5040400;28;19979;-73
2023/05/19 04:50:13;;;;;;;;;;;8.10;99.90;;;;;;5051965;28;20003;-73
2023/05/19 04:52:41;;;;;;;;;;;8.20;99.90;;;;;;5051132;28;19995;-73
2023/05/19 04:55:07;;;;;;;;;;;8.30;99.90;;;;;;5045984;28;19947;-73
2023/05/19 04:57:33;;;;;;;;;;;8.40;99.90;;;;;;5065949;28;19924;-71
2023/05/19 04:59:59;;;;;;;;;;;8.60;99.90;;;;;;5066985;28;19931;-71
2023/05/19 05:02:26;;;;;;;;;;;8.80;99.90;;;;;;5072574;28;19924;-72
2023/05/19 05:04:53;;;;;;;;;;;9.00;99.90;;;;;;5071179;28;20298;-71
2023/05/19 05:07:21;;;;;;;;;;;9.10;99.90;;;;;;5064004;28;20386;-71
2023/05/19 05:09:47;;;;;;;;;;;9.20;99.90;;;;;;5063878;28;20251;-71
2023/05/19 05:12:13;;;;;;;;;;;9.40;99.90;;;;;;5056815;28;19929;-71
2023/05/19 05:14:39;;;;;;;;;;;9.70;99.90;;;;;;5069659;28;19947;-71
2023/05/19 05:17:05;;;;;;;;;;;9.90;99.90;;;;;;5052498;28;19924;-71
2023/05/19 05:19:31;;;;;;;;;;;10.00;99.90;;;;;;5068215;28;19924;-71
2023/05/19 05:21:56;;;;;;;;;;;10.20;99.90;;;;;;5060630;28;19925;-71
2023/05/19 05:24:22;;;;;;;;;;;10.40;99.90;;;;;;5073426;28;20073;-71
2023/05/19 05:26:48;;;;;;;;;;;10.50;99.90;;;;;;5068214;28;20396;-71
2023/05/19 05:29:14;;;;;;;;;;;10.60;99.90;;;;;;5060301;28;20371;-72
2023/05/19 05:31:39;;;;;;;;;;;10.80;99.90;;;;;;5065915;28;20366;-71
2023/05/19 05:34:05;;;;;;;;;;;11.00;99.90;;;;;;5048782;28;19924;-71
2023/05/19 05:36:31;;;;;;;;;;;11.10;99.90;;;;;;5070645;28;19925;-72
2023/05/19 05:38:58;;;;;;;;;;;11.30;99.90;;;;;;5073482;28;19932;-71
2023/05/19 05:41:23;;;;;;;;;;;11.50;99.90;;;;;;5057230;28;19963;-72
2023/05/19 05:43:49;;;;;;;;;;;11.70;99.90;;;;;;5057619;28;19991;-73
2023/05/19 05:46:15;;;;;;;;;;;12.00;99.90;;;;;;5062889;28;19985;-72
2023/05/19 05:48:41;;;;;;;;;;;12.20;99.90;;;;;;5064922;28;19924;-72
2023/05/19 05:51:10;;;;;;;;;;;12.30;99.90;;;;;;5058196;28;19924;-72
2023/05/19 05:53:39;;;;;;;;;;;12.40;99.90;;;;;;5048805;28;20279;-71
2023/05/19 05:56:04;;;;;;;;;;;12.50;99.90;;;;;;5042538;28;19924;-71
2023/05/19 05:58:31;;;;;;;;;;;12.80;99.90;;;;;;5047101;28;19946;-72
2023/05/19 06:00:57;;;;;;;;;;;13.00;99.90;;;;;;5065709;28;19932;-69
2023/05/19 06:03:23;;;;;;;;;;;13.30;99.90;;;;;;5067521;28;19952;-68
2023/05/19 06:05:48;;;;;;;;;;;13.40;99.90;;;;;;5052763;28;20275;-71
2023/05/19 06:08:16;;;;;;;;;;;13.40;99.90;;;;;;5071463;28;19986;-70
2023/05/19 06:10:42;;;;;;;;;;;13.30;99.90;;;;;;5062733;28;19929;-72
2023/05/19 06:13:07;;;;;;;;;;;13.20;99.90;;;;;;5069537;28;20387;-72
2023/05/19 06:15:33;;;;;;;;;;;13.00;99.90;;;;;;5068410;28;19924;-71
2023/05/19 06:18:01;;;;;;;;;;;13.00;99.90;;;;;;5066376;28;19970;-70
2023/05/19 06:20:27;;;;;;;;;;;12.90;99.90;;;;;;5061824;28;20277;-70
2023/05/19 06:22:53;;;;;;;;;;;12.80;99.90;;;;;;5030212;28;19924;-71
2023/05/19 06:25:19;;;;;;;;;;;12.90;99.90;;;;;;5071904;28;19928;-71
2023/05/19 06:27:45;;;;;;;;;;;13.00;99.90;;;;;;5067648;28;20404;-69
2023/05/19 06:30:11;;;;;;;;;;;13.00;99.90;;;;;;5067381;28;19924;-69
2023/05/19 06:32:36;;;;;;;;;;;13.10;99.90;;;;;;5069517;28;19931;-70
2023/05/19 06:35:02;;;;;;;;;;;13.20;99.90;;;;;;5068245;28;20019;-69
2023/05/19 06:37:27;;;;;;;;;;;13.20;99.90;;;;;;5071920;28;19925;-69
2023/05/19 06:39:53;;;;;;;;;;;13.30;99.90;;;;;;5072141;28;19928;-70
2023/05/19 06:42:22;;;;;;;;;;;13.50;99.90;;;;;;5070900;28;19931;-69
2023/05/19 06:44:48;;;;;;;;;;;13.60;99.90;;;;;;5060355;28;20306;-70
2023/05/19 06:47:15;;;;;;;;;;;13.60;99.90;;;;;;5070516;28;19925;-68
2023/05/19 06:49:41;;;;;;;;;;;13.60;99.90;;;;;;5073005;28;19924;-69
2023/05/19 06:52:06;;;;;;;;;;;13.50;99.90;;;;;;5066473;28;19924;-71
2023/05/19 06:54:32;;;;;;;;;;;13.50;99.90;;;;;;5067955;28;19931;-71
2023/05/19 06:56:57;;;;;;;;;;;13.60;99.90;;;;;;5038480;28;19925;-71
2023/05/19 06:59:23;;;;;;;;;;;13.80;99.90;;;;;;5057032;28;19965;-69
2023/05/19 07:01:48;;;;;;;;;;;13.90;99.90;;;;;;5050490;28;19940;-70
2023/05/19 07:04:14;;;;;;;;;;;13.90;99.90;;;;;;5075456;28;20011;-70
2023/05/19 07:06:40;;;;;;;;;;;14.00;99.90;;;;;;5075251;28;19924;-71
2023/05/19 07:09:06;;;;;;;;;;;14.10;99.90;;;;;;5076259;28;19935;-69
2023/05/19 07:11:31;;;;;;;;;;;14.20;99.90;;;;;;5068694;28;19929;-70
2023/05/19 07:13:57;;;;;;;;;;;14.30;99.90;;;;;;5041736;28;19975;-70
2023/05/19 07:16:22;;;;;;;;;;;14.30;99.90;;;;;;5056323;28;20006;-70
2023/05/19 07:18:48;;;;;;;;;;;14.30;99.90;;;;;;5064811;28;19971;-70
2023/05/19 07:21:16;;;;;;;;;;;14.40;99.90;;;;;;5060726;28;19931;-72
2023/05/19 07:23:42;;;;;;;;;;;14.50;99.90;;;;;;5074290;28;19925;-71
2023/05/19 07:26:07;;;;;;;;;;;14.60;99.90;;;;;;5043654;28;19928;-70
2023/05/19 07:28:33;;;;;;;;;;;14.70;99.90;;;;;;5063077;28;19925;-69
2023/05/19 07:30:59;;;;;;;;;;;14.80;99.90;;;;;;5068500;28;19924;-68
2023/05/19 07:33:25;;;;;;;;;;;14.90;99.90;;;;;;5050560;28;19933;-71
2023/05/19 07:35:52;;;;;;;;;;;14.90;99.90;;;;;;5066362;28;19925;-70
2023/05/19 07:38:18;;;;;;;;;;;15.00;99.90;;;;;;5067881;28;19947;-69
2023/05/19 07:40:43;;;;;;;;;;;15.00;99.90;;;;;;5073213;28;19924;-71
2023/05/19 07:43:10;;;;;;;;;;;15.20;99.90;;;;;;5067007;28;19970;-70
2023/05/19 07:45:36;;;;;;;;;;;15.20;99.90;;;;;;5062009;28;19959;-69
2023/05/19 07:48:02;;;;;;;;;;;15.20;99.90;;;;;;5062375;28;19931;-70
2023/05/19 07:50:28;;;;;;;;;;;15.30;99.90;;;;;;5063123;28;19929;-70
2023/05/19 07:52:53;;;;;;;;;;;15.30;99.90;;;;;;5069157;28;20437;-70
2023/05/19 07:55:21;;;;;;;;;;;15.50;99.90;;;;;;5074481;28;20011;-72
2023/05/19 07:57:50;;;;;;;;;;;15.60;99.90;;;;;;5069213;28;20398;-70
2023/05/19 08:00:16;;;;;;;;;;;15.70;99.90;;;;;;5066730;28;19924;-70
2023/05/19 08:02:47;;;;;;;;;;;15.70;99.90;;;;;;5063286;28;19925;-70
2023/05/19 08:05:13;;;;;;;;;;;15.90;99.90;;;;;;5071578;28;19974;-70
2023/05/19 08:07:39;;;;;;;;;;;16.00;99.90;;;;;;5071142;28;19932;-71
2023/05/19 08:10:05;;;;;;;;;;;16.10;99.90;;;;;;5070510;28;19975;-71
2023/05/19 08:12:31;;;;;;;;;;;16.10;99.50;;;;;;5037709;28;20016;-72
2023/05/19 08:14:56;;;;;;;;;;;16.20;99.70;;;;;;5059812;28;19924;-71
2023/05/19 08:17:22;;;;;;;;;;;16.10;99.90;;;;;;5069813;28;20293;-71
2023/05/19 08:19:48;;;;;;;;;;;16.10;99.90;;;;;;5071675;28;19924;-71
2023/05/19 08:22:13;;;;;;;;;;;16.20;99.90;;;;;;5072304;28;20385;-71
2023/05/19 08:24:41;;;;;;;;;;;16.40;99.90;;;;;;5065598;28;19925;-72
2023/05/19 08:27:06;;;;;;;;;;;16.50;98.30;;;;;;5072985;28;19970;-69
2023/05/19 08:29:32;;;;;;;;;;;16.40;98.20;;;;;;5060530;28;19929;-71
2023/05/19 08:31:58;;;;;;;;;;;16.50;97.80;;;;;;5063320;28;19972;-72
2023/05/19 08:34:23;;;;;;;;;;;16.40;97.30;;;;;;5054543;28;20332;-74
2023/05/19 08:36:49;;;;;;;;;;;16.30;97.80;;;;;;5065187;28;19925;-73
2023/05/19 08:39:17;;;;;;;;;;;16.40;98.30;;;;;;5047242;28;19982;-72
2023/05/19 08:41:42;;;;;;;;;;;16.40;98.10;;;;;;5063573;28;19928;-71
2023/05/19 08:44:08;;;;;;;;;;;16.60;98.10;;;;;;5063761;28;20339;-73
2023/05/19 08:46:34;;;;;;;;;;;16.70;98.00;;;;;;5056070;28;19925;-70
2023/05/19 08:49:10;;;;;;;;;;;16.80;97.50;;;;;;5075464;28;20061;-70
2023/05/19 08:51:40;;;;;;;;;;;16.80;96.30;;;;;;5059708;28;19990;-71
2023/05/19 08:54:11;;;;;;;;;;;16.70;95.90;;;;;;5064998;28;20301;-71
2023/05/19 08:56:37;;;;;;;;;;;16.50;96.50;;;;;;5063840;28;20070;-71
2023/05/19 08:59:03;;;;;;;;;;;16.50;97.90;;;;;;5042332;28;19925;-71
2023/05/19 09:01:29;;;;;;;;;;;16.70;97.70;;;;;;5066523;28;19931;-72
2023/05/19 09:03:55;;;;;;;;;;;16.80;97.30;;;;;;5052402;28;20015;-72
2023/05/19 09:06:20;;;;;;;;;;;17.00;96.00;;;;;;5075523;28;19924;-73
2023/05/19 09:08:47;;;;;;;;;;;17.00;96.20;;;;;;5058627;28;19972;-71
2023/05/19 09:11:13;;;;;;;;;;;17.00;96.30;;;;;;5055346;28;19929;-74
2023/05/19 09:13:39;;;;;;;;;;;17.10;96.70;;;;;;5073500;28;19970;-72
2023/05/19 09:16:05;;;;;;;;;;;17.10;95.30;;;;;;5059706;28;19932;-73
2023/05/19 09:18:31;;;;;;;;;;;17.00;95.90;;;;;;5063561;28;20398;-72
2023/05/19 09:21:01;;;;;;;;;;;17.10;96.30;;;;;;5038750;28;19932;-72
2023/05/19 09:23:28;;;;;;;;;;;17.20;95.60;;;;;;5069143;28;19975;-72
2023/05/19 09:25:58;;;;;;;;;;;17.20;95.10;;;;;;5064983;28;19924;-73
2023/05/19 09:28:29;;;;;;;;;;;17.20;95.50;;;;;;5049224;28;19925;-73
2023/05/19 09:30:58;;;;;;;;;;;17.20;94.90;;;;;;5061214;28;19931;-71
2023/05/19 09:33:24;;;;;;;;;;;17.20;95.00;;;;;;5060870;28;19946;-71
2023/05/19 09:35:50;;;;;;;;;;;17.20;94.40;;;;;;5053174;28;20418;-72
2023/05/19 09:38:18;;;;;;;;;;;17.30;94.40;;;;;;5068372;28;19931;-72
2023/05/19 09:40:46;;;;;;;;;;;17.30;94.70;;;;;;5047267;28;19978;-72
2023/05/19 09:43:12;;;;;;;;;;;17.30;94.70;;;;;;5072141;28;20367;-72
2023/05/19 09:45:38;;;;;;;;;;;17.30;93.60;;;;;;5053313;28;19925;-72
2023/05/19 09:48:04;;;;;;;;;;;17.20;93.40;;;;;;5062168;28;19924;-71
2023/05/19 09:50:31;;;;;;;;;;;17.10;93.70;;;;;;5057352;28;20298;-73
2023/05/19 09:52:57;;;;;;;;;;;17.20;93.80;;;;;;5059265;28;20401;-72
2023/05/19 09:55:24;;;;;;;;;;;17.40;94.50;;;;;;5067597;28;19931;-74
2023/05/19 09:57:51;;;;;;;;;;;17.50;92.90;;;;;;5071509;28;20115;-73
2023/05/19 10:00:17;;;;;;;;;;;17.50;92.10;;;;;;5070708;28;20332;-72
2023/05/19 10:02:44;;;;;;;;;;;17.50;93.20;;;;;;5040043;28;19925;-72
2023/05/19 10:05:11;;;;;;;;;;;17.50;92.50;;;;;;5070990;28;19932;-69
2023/05/19 10:07:39;;;;;;;;;;;17.50;92.80;;;;;;5042799;28;19925;-70
2023/05/19 10:10:08;;;;;;;;;;;17.80;94.00;;;;;;5063441;28;20377;-71
2023/05/19 10:12:34;;;;;;;;;;;18.00;88.50;;;;;;5037291;28;20364;-71
2023/05/19 10:15:00;;;;;;;;;;;18.00;88.30;;;;;;5070471;28;19971;-72
2023/05/19 10:17:27;;;;;;;;;;;18.20;89.70;;;;;;5067897;28;19975;-70
2023/05/19 10:19:53;;;;;;;;;;;18.30;83.40;;;;;;5065915;28;20062;-70
2023/05/19 10:22:19;;;;;;;;;;;18.50;83.70;;;;;;5055374;28;19925;-70
2023/05/19 10:24:44;;;;;;;;;;;18.50;83.20;;;;;;5052168;28;19929;-70
2023/05/19 10:27:13;;;;;;;;;;;18.60;83.40;;;;;;5056451;28;20024;-72
2023/05/19 10:29:40;;;;;;;;;;;18.80;84.80;;;;;;5064257;28;20268;-72
2023/05/19 10:32:14;;;;;;;;;;;19.00;81.30;;;;;;5061531;28;19932;-70
2023/05/19 10:34:49;;;;;;;;;;;19.00;82.10;;;;;;5063847;28;19925;-72
2023/05/19 10:37:33;;;;;;;;;;;19.20;82.20;;;;;;5063742;28;19932;-72
2023/05/19 10:39:59;;;;;;;;;;;19.40;81.40;;;;;;5059467;28;20381;-71
2023/05/19 10:42:24;;;;;;;;;;;19.40;76.90;;;;;;5064461;28;19931;-71
2023/05/19 10:44:50;;;;;;;;;;;19.50;77.10;;;;;;5063212;28;20011;-71
2023/05/19 10:47:22;;;;;;;;;;;19.30;78.00;;;;;;5065942;28;19932;-70
2023/05/19 10:49:47;;;;;;;;;;;19.30;79.70;;;;;;5043262;28;19948;-72
2023/05/19 10:52:24;;;;;;;;;;;19.40;78.10;;;;;;5076343;28;20370;-71
2023/05/19 10:54:50;;;;;;;;;;;19.50;78.50;;;;;;5036642;28;19962;-70
2023/05/19 10:57:16;;;;;;;;;;;19.70;77.50;;;;;;5053271;28;19921;-69
2023/05/19 10:59:43;;;;;;;;;;;19.60;77.20;;;;;;5068473;28;19924;-70
2023/05/19 11:02:09;;;;;;;;;;;19.90;78.40;;;;;;5071719;28;20134;-71
2023/05/19 11:04:46;;;;;;;;;;;20.00;78.40;;;;;;5051595;28;19924;-71
2023/05/19 11:07:19;;;;;;;;;;;20.00;73.40;;;;;;5024072;28;19929;-70
2023/05/19 11:09:51;;;;;;;;;;;20.20;78.50;;;;;;5044971;28;20012;-71
2023/05/19 11:12:22;;;;;;;;;;;20.10;73.20;;;;;;5052166;28;20569;-71
2023/05/19 11:14:51;;;;;;;;;;;20.40;76.70;;;;;;5052054;28;19928;-71
2023/05/19 11:17:17;;;;;;;;;;;20.50;74.90;;;;;;5069756;28;19925;-69
2023/05/19 11:19:53;;;;;;;;;;;20.60;73.70;;;;;;5053488;28;19925;-71
2023/05/19 11:22:25;;;;;;;;;;;21.00;73.60;;;;;;5041706;28;19924;-71
2023/05/19 11:24:53;;;;;;;;;;;21.00;74.60;;;;;;5039439;28;20015;-70
2023/05/19 11:27:23;;;;;;;;;;;21.30;76.20;;;;;;5049668;28;19931;-71
2023/05/19 11:29:50;;;;;;;;;;;21.60;73.30;;;;;;5049122;28;19925;-69
2023/05/19 11:32:18;;;;;;;;;;;21.10;72.20;;;;;;5061927;28;19925;-72
2023/05/19 11:34:44;;;;;;;;;;;21.20;73.30;;;;;;5072663;28;19978;-71
2023/05/19 11:37:10;;;;;;;;;;;21.00;73.80;;;;;;5064022;28;19932;-69
2023/05/19 11:39:36;;;;;;;;;;;21.00;75.10;;;;;;5069038;28;20341;-71
2023/05/19 11:42:01;;;;;;;;;;;21.10;71.50;;;;;;5072604;28;19928;-71
2023/05/19 11:44:27;;;;;;;;;;;20.90;73.30;;;;;;5075020;28;19931;-71
2023/05/19 11:46:52;;;;;;;;;;;21.00;73.10;;;;;;5074743;28;20337;-71
2023/05/19 11:49:18;;;;;;;;;;;21.00;75.30;;;;;;5076221;28;20278;-70
2023/05/19 11:51:47;;;;;;;;;;;21.10;74.40;;;;;;5058917;28;19924;-71
2023/05/19 11:54:12;;;;;;;;;;;21.40;73.30;;;;;;5055684;28;19936;-72
2023/05/19 11:56:41;;;;;;;;;;;21.30;70.50;;;;;;5072043;28;19924;-73
2023/05/19 11:59:10;;;;;;;;;;;21.20;72.20;;;;;;5070759;28;19974;-70
2023/05/19 12:01:36;;;;;;;;;;;21.20;73.30;;;;;;5068664;28;20290;-71
2023/05/19 12:04:02;;;;;;;;;;;21.30;74.30;;;;;;5069732;28;19952;-71
2023/05/19 12:06:28;;;;;;;;;;;21.40;71.80;;;;;;5054993;28;19925;-70
2023/05/19 12:08:54;;;;;;;;;;;21.30;71.20;;;;;;5036964;28;19931;-69
2023/05/19 12:11:20;;;;;;;;;;;21.00;71.90;;;;;;5056411;28;19925;-71
2023/05/19 12:13:46;;;;;;;;;;;21.00;70.80;;;;;;5051302;28;19931;-69
2023/05/19 12:16:11;;;;;;;;;;;20.90;73.10;;;;;;5052043;28;20364;-71
2023/05/19 12:18:37;;;;;;;;;;;20.90;72.30;;;;;;5070183;28;20428;-72
2023/05/19 12:21:03;;;;;;;;;;;21.00;72.50;;;;;;5057614;28;19924;-71
2023/05/19 12:23:29;;;;;;;;;;;21.10;73.70;;;;;;5058017;28;19991;-70
2023/05/19 12:25:58;;;;;;;;;;;21.10;72.90;;;;;;5059646;28;20306;-72
2023/05/19 12:28:23;;;;;;;;;;;21.20;72.40;;;;;;5068139;28;20354;-71
2023/05/19 12:30:51;;;;;;;;;;;21.30;71.60;;;;;;5062180;28;20020;-68
2023/05/19 12:33:21;;;;;;;;;;;21.50;72.30;;;;;;5074830;28;19924;-69
2023/05/19 12:35:48;;;;;;;;;;;21.30;71.30;;;;;;5051523;28;20078;-69
2023/05/19 12:38:14;;;;;;;;;;;21.20;71.30;;;;;;5054110;28;20382;-70
2023/05/19 12:40:40;;;;;;;;;;;21.00;71.60;;;;;;5058857;28;19925;-71
2023/05/19 12:43:08;;;;;;;;;;;21.10;74.60;;;;;;5052648;28;19931;-70
2023/05/19 12:45:34;;;;;;;;;;;21.10;73.80;;;;;;5072707;28;19932;-72
2023/05/19 12:48:04;;;;;;;;;;;21.10;74.20;;;;;;5070166;28;19925;-70
2023/05/19 12:50:31;;;;;;;;;;;21.00;73.10;;;;;;5071946;28;19924;-72
2023/05/19 12:52:58;;;;;;;;;;;21.10;75.10;;;;;;5064896;28;20378;-72
2023/05/19 12:55:24;;;;;;;;;;;21.00;72.60;;;;;;5072161;28;19925;-70
2023/05/19 12:57:51;;;;;;;;;;;20.90;74.30;;;;;;5043357;28;19924;-72
2023/05/19 13:00:20;;;;;;;;;;;20.90;73.40;;;;;;5069259;28;19925;-71
2023/05/19 13:02:59;;;;;;;;;;;21.10;77.20;;;;;;5074518;28;19928;-72
2023/05/19 13:05:35;;;;;;;;;;;21.10;74.20;;;;;;5074835;28;19924;-71
2023/05/19 13:08:05;;;;;;;;;;;21.30;75.70;;;;;;5056782;28;20387;-72
2023/05/19 13:10:32;;;;;;;;;;;21.40;74.70;;;;;;5052552;28;19931;-71
2023/05/19 13:12:58;;;;;;;;;;;21.50;73.70;;;;;;5051142;28;20029;-71
2023/05/19 13:15:25;;;;;;;;;;;21.50;74.60;;;;;;5043184;28;19997;-71
2023/05/19 13:17:51;;;;;;;;;;;21.70;73.20;;;;;;5063209;28;19935;-71
2023/05/19 13:20:17;;;;;;;;;;;21.80;71.30;;;;;;5059661;28;20378;-73
2023/05/19 13:22:43;;;;;;;;;;;21.80;73.50;;;;;;5052609;28;19932;-72
2023/05/19 13:25:08;;;;;;;;;;;21.70;74.20;;;;;;5069846;28;19924;-72
2023/05/19 13:27:34;;;;;;;;;;;21.50;71.20;;;;;;5052618;28;19924;-72
2023/05/19 13:30:00;;;;;;;;;;;21.20;72.10;;;;;;5071848;28;19947;-72
2023/05/19 13:32:28;;;;;;;;;;;20.90;73.70;;;;;;5072335;28;19931;-71
2023/05/19 13:34:55;;;;;;;;;;;20.70;73.10;;;;;;5045199;28;20129;-71
2023/05/19 13:37:21;;;;;;;;;;;20.60;76.10;;;;;;5069390;28;19925;-72
2023/05/19 13:39:47;;;;;;;;;;;20.40;77.40;;;;;;5074366;28;19928;-72
2023/05/19 13:42:12;;;;;;;;;;;20.30;77.50;;;;;;5052422;28;20268;-72
2023/05/19 13:44:38;;;;;;;;;;;20.20;79.50;;;;;;5045118;28;19947;-72
2023/05/19 13:47:04;;;;;;;;;;;20.10;81.00;;;;;;5057051;28;19925;-71
2023/05/19 13:49:29;;;;;;;;;;;20.20;82.80;;;;;;5049909;28;19954;-70
2023/05/19 13:51:55;;;;;;;;;;;20.40;80.60;;;;;;5058301;28;19924;-71
2023/05/19 13:54:24;;;;;;;;;;;20.40;80.60;;;;;;5055076;28;19925;-71
2023/05/19 13:56:49;;;;;;;;;;;20.60;81.30;;;;;;5055517;28;20297;-71
2023/05/19 13:59:16;;;;;;;;;;;20.30;80.90;;;;;;5069602;28;19932;-73
2023/05/19 14:01:42;;;;;;;;;;;20.40;82.80;;;;;;5054667;28;19931;-73
2023/05/19 14:04:08;;;;;;;;;;;20.50;84.40;;;;;;5058480;28;19932;-72
2023/05/19 14:06:33;;;;;;;;;;;20.80;84.20;;;;;;5049184;28;19924;-72
2023/05/19 14:09:00;;;;;;;;;;;20.90;82.70;;;;;;5070869;28;19932;-72
2023/05/19 14:11:25;;;;;;;;;;;20.70;83.00;;;;;;5071205;28;20418;-72
2023/05/19 14:13:51;;;;;;;;;;;20.90;84.50;;;;;;5066029;28;19953;-72
2023/05/19 14:16:16;;;;;;;;;;;20.80;83.30;;;;;;5061993;28;19924;-71
2023/05/19 14:18:42;;;;;;;;;;;20.90;83.50;;;;;;5062240;28;20397;-73
2023/05/19 14:21:07;;;;;;;;;;;21.00;83.50;;;;;;5049126;28;19924;-72